createdAt,value
2018-02-18T00:02:01.600Z,24.45
2018-02-18T00:04:29.073Z,23.05
2018-02-18T00:06:56.571Z,23.92
2018-02-18T00:09:24.852Z,22.52
2018-02-18T00:11:53.107Z,23.77
2018-02-18T00:17:22.681Z,21.10
2018-02-18T00:19:50.175Z,23.92
2018-02-18T00:22:17.668Z,23.90
2018-02-18T00:24:45.168Z,22.48
2018-02-18T00:27:12.691Z,22.25
2018-02-18T00:29:40.974Z,24.33
2018-02-18T00:32:09.212Z,24.45
2018-02-18T00:34:36.809Z,24.90
2018-02-18T00:37:04.250Z,23.38
2018-02-18T00:39:31.754Z,23.83
2018-02-18T00:41:59.221Z,22.33
2018-02-18T00:44:26.731Z,20.98
2018-02-18T00:46:54.966Z,19.50
2018-02-18T00:49:22.482Z,20.20
2018-02-18T00:51:50.743Z,20.35
2018-02-18T00:54:18.231Z,21.65
2018-02-18T00:56:45.758Z,18.05
2018-02-18T00:59:13.239Z,19.15
2018-02-18T01:01:41.496Z,19.58
2018-02-18T01:04:08.980Z,19.58
2018-02-18T01:06:36.462Z,19.67
2018-02-18T01:09:03.959Z,18.37
2018-02-18T01:11:31.431Z,19.65
2018-02-18T01:13:58.954Z,19.23
2018-02-18T01:16:26.427Z,19.35
2018-02-18T01:18:53.918Z,19.62
2018-02-18T01:21:22.210Z,17.30
2018-02-18T01:23:50.443Z,18.08
2018-02-18T01:26:17.938Z,17.58
2018-02-18T01:28:46.192Z,19.05
2018-02-18T01:31:13.694Z,17.30
2018-02-18T01:33:41.170Z,18.50
2018-02-18T01:36:08.666Z,17.58
2018-02-18T01:38:36.158Z,19.10
2018-02-18T01:41:03.664Z,18.62
2018-02-18T01:43:31.139Z,19.50
2018-02-18T01:46:00.119Z,18.37
2018-02-18T01:48:27.619Z,18.42
2018-02-18T01:50:55.869Z,19.58
2018-02-18T01:53:23.346Z,19.80
2018-02-18T01:55:51.606Z,18.77
2018-02-18T01:58:19.111Z,18.48
2018-02-18T02:00:46.575Z,18.77
2018-02-18T02:03:14.101Z,18.25
2018-02-18T02:05:42.331Z,19.25
2018-02-18T02:08:09.818Z,20.00
2018-02-18T02:10:37.306Z,18.08
2018-02-18T02:13:04.799Z,18.70
2018-02-18T02:15:32.307Z,19.10
2018-02-18T02:18:00.563Z,18.02
2018-02-18T02:20:28.088Z,20.27
2018-02-18T02:22:55.560Z,20.75
2018-02-18T02:25:23.034Z,20.40
2018-02-18T02:27:50.530Z,20.23
2018-02-18T02:30:18.803Z,18.12
2018-02-18T02:32:47.092Z,20.08
2018-02-18T02:35:14.547Z,20.08
2018-02-18T02:37:42.059Z,21.12
2018-02-18T02:40:09.540Z,19.65
2018-02-18T07:58:34.289Z,28.50
2018-02-18T08:01:01.790Z,34.78
2018-02-18T08:03:29.271Z,28.65
2018-02-18T08:05:57.558Z,24.92
2018-02-18T08:08:25.825Z,25.33
2018-02-18T08:10:54.078Z,26.25
2018-02-18T08:13:21.579Z,25.67
2018-02-18T08:15:49.063Z,25.70
2018-02-18T08:18:16.580Z,27.02
2018-02-18T08:20:44.850Z,29.33
2018-02-18T08:23:13.123Z,27.08
2018-02-18T08:25:40.601Z,26.40
2018-02-18T08:28:08.867Z,26.67
2018-02-18T08:30:37.114Z,28.58
2018-02-18T08:33:04.608Z,29.10
2018-02-18T08:35:32.871Z,31.00
2018-02-18T08:38:01.113Z,30.08
2018-02-18T08:40:28.629Z,25.40
2018-02-18T08:42:58.103Z,27.55
2018-02-18T08:45:25.632Z,25.80
2018-02-18T08:47:53.170Z,24.45
2018-02-18T08:50:20.665Z,27.33
2018-02-18T08:52:48.158Z,26.05
2018-02-18T08:55:16.435Z,26.70
2018-02-18T08:57:44.678Z,23.73
2018-02-18T09:00:12.179Z,19.85
2018-02-18T09:02:40.420Z,20.95
2018-02-18T09:05:07.929Z,21.83
2018-02-18T09:07:35.461Z,27.00
2018-02-18T09:10:03.762Z,32.67
2018-02-18T09:12:32.043Z,25.95
2018-02-18T09:14:59.546Z,22.98
2018-02-18T09:17:27.038Z,23.90
2018-02-18T09:19:55.326Z,25.98
2018-02-18T09:22:22.842Z,24.60
2018-02-18T09:24:50.359Z,22.27
2018-02-18T09:27:17.858Z,22.90
2018-02-18T09:29:45.379Z,22.92
2018-02-18T09:32:12.843Z,22.30
2018-02-18T09:34:40.393Z,21.05
2018-02-18T09:37:08.631Z,21.95
2018-02-18T09:39:36.113Z,19.25
2018-02-18T09:42:04.371Z,20.25
2018-02-18T09:44:31.851Z,21.60
2018-02-18T09:46:59.385Z,22.40
2018-02-18T09:49:26.855Z,23.05
2018-02-18T09:51:55.132Z,20.37
2018-02-18T09:54:23.414Z,23.67
2018-02-18T09:56:51.671Z,24.85
2018-02-18T09:59:19.980Z,23.45
2018-02-18T10:01:47.464Z,24.90
2018-02-18T10:04:16.015Z,23.58
2018-02-18T10:06:44.298Z,21.17
2018-02-18T10:09:11.840Z,22.27
2018-02-18T10:11:40.095Z,25.30
2018-02-18T10:14:07.597Z,25.52
2018-02-18T10:16:35.892Z,26.77
2018-02-18T10:19:03.402Z,26.48
2018-02-18T10:21:30.906Z,20.90
2018-02-18T10:23:58.387Z,23.48
2018-02-18T10:26:25.895Z,26.58
2018-02-18T10:28:53.394Z,24.33
2018-02-18T10:31:20.896Z,26.20
2018-02-18T10:33:49.233Z,26.30
2018-02-18T10:36:16.752Z,24.40
2018-02-18T10:38:45.899Z,25.63
2018-02-18T10:41:13.431Z,24.33
2018-02-18T10:43:40.906Z,23.98
2018-02-18T10:46:08.411Z,23.90
2018-02-18T10:48:36.685Z,22.17
2018-02-18T10:51:04.191Z,23.92
2018-02-18T10:53:31.727Z,23.90
2018-02-18T10:56:00.006Z,23.23
2018-02-18T10:58:28.243Z,21.52
2018-02-18T11:00:55.742Z,22.17
2018-02-18T11:03:24.022Z,25.08
2018-02-18T11:05:51.543Z,23.70
2018-02-18T11:08:19.000Z,23.10
2018-02-18T11:10:48.023Z,27.02
2018-02-18T11:13:16.294Z,25.10
2018-02-18T11:15:44.576Z,23.48
2018-02-18T11:18:12.856Z,23.35
2018-02-18T11:20:41.090Z,24.12
2018-02-18T11:23:08.602Z,24.35
2018-02-18T11:25:36.067Z,21.60
2018-02-18T11:28:03.591Z,24.00
2018-02-18T11:30:31.059Z,22.98
2018-02-18T11:32:59.372Z,23.45
2018-02-18T11:35:26.846Z,22.58
2018-02-18T11:37:54.360Z,20.37
2018-02-18T11:40:22.599Z,18.98
2018-02-18T11:42:50.191Z,21.33
2018-02-18T11:45:18.511Z,22.15
2018-02-18T11:47:45.991Z,21.20
2018-02-18T11:50:13.471Z,20.42
2018-02-18T11:52:40.982Z,18.10
2018-02-18T11:55:08.512Z,20.12
2018-02-18T11:57:36.799Z,21.00
2018-02-18T12:00:05.078Z,19.48
2018-02-18T12:02:32.607Z,21.77
2018-02-18T12:05:00.068Z,20.88
2018-02-18T12:07:28.333Z,19.35
2018-02-18T12:09:55.806Z,20.10
2018-02-18T12:12:23.323Z,20.30
2018-02-18T12:14:50.832Z,21.17
2018-02-18T12:17:19.115Z,19.40
2018-02-18T12:19:47.399Z,20.52
2018-02-18T12:22:15.630Z,20.95
2018-02-18T12:24:43.128Z,18.52
2018-02-18T12:27:11.379Z,18.10
2018-02-18T12:29:38.891Z,17.10
2018-02-18T12:32:06.413Z,19.60
2018-02-18T12:34:34.701Z,18.30
2018-02-18T12:37:02.942Z,20.48
2018-02-18T12:39:30.417Z,20.17
2018-02-18T12:41:58.706Z,20.20
2018-02-18T12:44:26.947Z,22.00
2018-02-18T12:46:54.446Z,19.83
2018-02-18T12:49:22.686Z,18.67
2018-02-18T12:51:50.192Z,19.50
2018-02-18T12:54:17.694Z,20.35
2018-02-18T12:56:45.240Z,19.27
2018-02-18T12:59:12.726Z,16.52
2018-02-18T13:01:40.226Z,16.35
2018-02-18T13:04:07.728Z,19.55
2018-02-18T13:06:35.249Z,15.65
2018-02-18T13:09:02.763Z,18.15
2018-02-18T13:11:30.247Z,19.98
2018-02-18T13:13:57.781Z,22.98
2018-02-18T13:16:25.261Z,19.20
2018-02-18T13:18:53.498Z,13.65
2018-02-18T13:21:20.995Z,14.90
2018-02-18T13:23:49.262Z,13.62
2018-02-18T13:26:16.798Z,14.93
2018-02-18T13:28:44.301Z,12.15
2018-02-18T13:31:12.562Z,14.60
2018-02-18T13:33:40.804Z,16.02
2018-02-18T13:36:08.322Z,15.27
2018-02-18T13:38:36.572Z,16.50
2018-02-18T13:41:04.103Z,17.40
2018-02-18T13:43:32.395Z,14.68
2018-02-18T13:45:59.896Z,15.32
2018-02-18T13:48:27.404Z,13.75
2018-02-18T13:50:54.903Z,11.43
2018-02-18T13:53:23.163Z,12.80
2018-02-18T13:55:51.409Z,12.90
2018-02-18T13:58:18.925Z,11.80
2018-02-18T14:00:46.409Z,12.77
2018-02-18T14:03:13.920Z,14.32
2018-02-18T14:05:41.399Z,15.82
2018-02-18T14:08:09.667Z,14.15
2018-02-18T14:10:37.915Z,13.90
2018-02-18T14:13:06.040Z,13.85
2018-02-18T14:15:33.527Z,13.00
2018-02-18T14:18:00.999Z,14.57
2018-02-18T14:20:28.500Z,13.98
2018-02-18T14:22:56.755Z,19.98
2018-02-18T14:25:24.260Z,19.50
2018-02-18T14:27:51.814Z,13.20
2018-02-18T14:30:19.310Z,17.75
2018-02-18T14:32:46.782Z,13.52
2018-02-18T14:35:14.308Z,13.55
2018-02-18T14:37:41.848Z,13.62
2018-02-18T14:40:09.344Z,14.25
2018-02-18T14:42:48.856Z,14.60
2018-02-18T14:45:28.155Z,15.93
2018-02-18T14:48:08.380Z,15.25
2018-02-18T14:50:47.718Z,16.10
2018-02-18T14:53:27.220Z,17.00
2018-02-18T14:56:06.474Z,16.02
2018-02-18T14:58:33.980Z,15.77
2018-02-18T15:01:01.450Z,16.83
2018-02-18T15:03:28.950Z,16.55
2018-02-18T15:05:56.436Z,16.65
2018-02-18T15:08:23.984Z,18.83
2018-02-18T15:10:51.493Z,19.58
2018-02-18T15:13:18.992Z,18.85
2018-02-18T15:15:46.490Z,19.73
2018-02-18T15:18:14.740Z,27.83
2018-02-18T15:20:42.227Z,30.90
2018-02-18T15:23:10.521Z,20.85
2018-02-18T15:25:38.012Z,23.38
2018-02-18T15:28:05.499Z,22.58
2018-02-18T15:30:32.995Z,21.12
2018-02-18T15:33:00.514Z,21.60
2018-02-18T15:35:28.007Z,19.33
2018-02-18T15:37:56.337Z,22.17
2018-02-18T15:40:23.770Z,23.70
2018-02-18T15:42:51.267Z,21.40
2018-02-18T15:45:18.780Z,18.52
2018-02-18T15:47:46.291Z,18.75
2018-02-18T15:50:13.811Z,17.05
2018-02-18T15:52:41.300Z,18.73
2018-02-18T15:55:08.811Z,20.27
2018-02-18T15:57:36.280Z,16.45
2018-02-18T16:00:03.789Z,17.40
2018-02-18T16:02:31.294Z,16.23
2018-02-18T16:04:58.771Z,17.27
2018-02-18T16:07:26.274Z,16.20
2018-02-18T16:09:54.543Z,18.08
2018-02-18T16:12:22.011Z,18.58
2018-02-18T16:14:50.305Z,18.10
2018-02-18T16:17:18.600Z,18.90
2018-02-18T16:19:46.096Z,18.67
2018-02-18T16:22:13.618Z,18.55
2018-02-18T16:24:41.120Z,17.85
2018-02-18T16:27:08.622Z,16.65
2018-02-18T16:29:36.106Z,17.20
2018-02-18T16:32:03.614Z,20.37
2018-02-18T16:34:31.880Z,20.27
2018-02-18T16:36:59.436Z,17.80
2018-02-18T16:39:26.931Z,17.90
2018-02-18T16:41:55.189Z,18.70
2018-02-18T16:44:23.478Z,18.55
2018-02-18T16:46:51.718Z,18.98
2018-02-18T16:49:19.228Z,19.67
2018-02-18T16:51:46.712Z,19.10
2018-02-18T16:54:14.219Z,20.25
2018-02-18T16:56:41.696Z,23.17
2018-02-18T16:59:09.980Z,21.30
2018-02-18T17:01:37.468Z,22.73
2018-02-18T17:04:05.024Z,21.33
2018-02-18T17:06:32.626Z,21.00
2018-02-18T17:09:00.150Z,22.37
2018-02-18T17:11:27.644Z,20.55
2018-02-18T17:13:55.955Z,20.42
2018-02-18T17:16:23.456Z,19.75
2018-02-18T17:18:51.004Z,21.50
2018-02-18T17:21:18.528Z,21.05
2018-02-18T17:23:46.042Z,17.20
2018-02-18T17:26:13.553Z,18.65
2018-02-18T17:28:41.815Z,19.80
2018-02-18T17:31:10.082Z,17.58
2018-02-18T17:33:37.582Z,14.68
2018-02-18T17:36:05.071Z,15.65
2018-02-18T17:38:32.588Z,14.80
2018-02-18T17:41:00.068Z,16.05
2018-02-18T17:43:27.597Z,17.02
2018-02-18T17:45:55.083Z,16.65
2018-02-18T17:48:22.602Z,16.25
2018-02-18T17:50:50.873Z,17.87
2018-02-18T17:53:19.801Z,16.62
2018-02-18T17:55:47.339Z,18.00
2018-02-18T17:58:14.840Z,17.23
2018-02-18T18:00:42.351Z,18.02
2018-02-18T18:03:10.583Z,19.98
2018-02-18T18:05:38.139Z,19.12
2018-02-18T18:08:05.609Z,18.70
2018-02-18T18:10:33.136Z,18.55
2018-02-18T18:13:00.639Z,18.83
2018-02-18T18:15:28.132Z,21.73
2018-02-18T18:17:56.429Z,23.50
2018-02-18T18:20:24.229Z,17.50
2018-02-18T18:22:51.761Z,16.33
2018-02-18T18:25:19.271Z,17.05
2018-02-18T18:27:46.786Z,17.67
2018-02-18T18:30:14.301Z,16.42
2018-02-18T18:32:42.580Z,18.73
2018-02-18T18:35:10.820Z,19.83
2018-02-18T18:37:38.363Z,19.85
2018-02-18T18:40:05.861Z,17.80
2018-02-18T18:42:33.374Z,20.20
2018-02-18T18:45:00.876Z,18.70
2018-02-18T18:47:29.114Z,16.70
2018-02-18T18:49:56.634Z,19.85
2018-02-18T18:52:24.898Z,19.50
2018-02-18T18:54:53.170Z,19.45
2018-02-18T18:57:21.437Z,20.02
2018-02-18T18:59:48.918Z,21.62
2018-02-18T19:02:17.218Z,22.85
2018-02-18T19:04:44.711Z,20.08
2018-02-18T19:07:12.225Z,21.65
2018-02-18T19:09:39.725Z,23.98
2018-02-18T19:12:07.247Z,21.52
2018-02-18T19:14:34.723Z,21.17
2018-02-18T19:17:02.222Z,21.25
2018-02-18T19:19:31.262Z,22.70
2018-02-18T19:21:58.751Z,23.83
2018-02-18T19:24:26.345Z,22.75
2018-02-18T19:26:53.860Z,24.48
2018-02-18T19:29:21.356Z,22.13
2018-02-18T19:31:48.871Z,23.48
2018-02-18T19:34:16.355Z,23.67
2018-02-18T19:36:43.852Z,22.62
2018-02-18T19:39:12.123Z,22.58
2018-02-18T19:41:40.412Z,22.00
2018-02-18T19:44:08.679Z,23.15
2018-02-18T19:46:37.096Z,17.62
2018-02-18T19:49:04.584Z,14.00
2018-02-18T19:51:32.106Z,14.35
2018-02-18T19:53:59.612Z,17.37
2018-02-18T19:56:27.106Z,16.48
2018-02-18T19:58:55.402Z,16.30
2018-02-18T20:01:23.608Z,18.10
2018-02-18T20:03:51.111Z,17.25
2018-02-18T20:06:19.396Z,17.35
2018-02-18T20:08:47.664Z,16.17
2018-02-18T20:11:15.917Z,16.73
2018-02-18T20:13:43.382Z,18.60
2018-02-18T20:16:10.903Z,17.27
2018-02-18T20:18:38.392Z,18.70
2018-02-18T20:21:05.950Z,18.70
2018-02-18T20:23:33.442Z,19.23
2018-02-18T20:26:01.760Z,17.15
2018-02-18T20:28:29.225Z,19.42
2018-02-18T20:30:56.743Z,19.92
2018-02-18T20:33:24.255Z,20.55
2018-02-18T20:35:51.820Z,17.42
2018-02-18T20:38:19.329Z,18.95
2018-02-18T20:40:46.831Z,19.30
2018-02-18T20:43:14.363Z,19.33
2018-02-18T20:45:41.857Z,17.15
2018-02-18T20:48:09.362Z,17.85
2018-02-18T20:50:36.838Z,17.42
2018-02-18T20:53:04.330Z,17.27
2018-02-18T20:55:31.858Z,16.48
2018-02-18T20:57:59.371Z,16.80
2018-02-18T21:00:26.909Z,18.35
2018-02-18T21:02:54.422Z,18.35
2018-02-18T21:05:21.915Z,16.55
2018-02-18T21:07:49.398Z,17.40
2018-02-18T21:10:16.961Z,17.25
2018-02-18T21:12:45.236Z,17.55
2018-02-18T21:15:12.705Z,15.02
2018-02-18T21:17:41.008Z,16.80
2018-02-18T21:20:08.483Z,15.38
2018-02-18T21:22:36.008Z,16.73
2018-02-18T21:25:04.272Z,15.20
2018-02-18T21:27:31.786Z,18.23
2018-02-18T21:29:59.294Z,16.27
2018-02-18T21:32:27.585Z,16.48
2018-02-18T21:34:55.872Z,18.25
2018-02-18T21:37:24.172Z,17.40
2018-02-18T21:39:51.674Z,16.65
2018-02-18T21:42:19.154Z,19.95
2018-02-18T21:44:47.428Z,19.20
2018-02-18T21:47:15.706Z,17.10
2018-02-18T21:49:43.980Z,17.52
2018-02-18T21:52:12.236Z,18.45
2018-02-18T21:54:39.753Z,18.58
2018-02-18T21:57:07.255Z,19.98
2018-02-18T21:59:34.763Z,20.88
2018-02-18T22:02:03.023Z,18.50
2018-02-18T22:04:31.322Z,18.98
2018-02-18T22:06:58.829Z,19.77
2018-02-18T22:09:26.333Z,20.70
2018-02-18T22:11:53.914Z,18.92
2018-02-18T22:14:21.419Z,19.77
2018-02-18T22:16:48.891Z,18.73
2018-02-18T22:19:17.168Z,18.67
2018-02-18T22:21:45.416Z,20.80
2018-02-18T22:24:12.913Z,20.90
2018-02-18T22:26:41.192Z,20.52
2018-02-18T22:29:09.455Z,23.20
2018-02-18T22:31:37.710Z,21.33
2018-02-18T22:34:05.198Z,22.08
2018-02-18T22:36:33.480Z,23.50
2018-02-18T22:39:01.724Z,22.87
2018-02-18T22:41:29.236Z,23.15
2018-02-18T22:43:56.705Z,23.77
2018-02-18T22:46:24.223Z,22.75
2018-02-18T22:48:52.483Z,22.05
2018-02-18T22:51:19.944Z,22.33
2018-02-18T22:53:48.238Z,24.20
2018-02-18T22:56:16.467Z,23.62
2018-02-18T22:58:43.970Z,23.33
2018-02-18T23:01:12.218Z,23.38
2018-02-18T23:03:39.796Z,22.73
2018-02-18T23:06:07.206Z,24.98
2018-02-18T23:08:34.690Z,24.55
2018-02-18T23:11:02.195Z,23.05
2018-02-18T23:13:29.676Z,22.85
2018-02-18T23:15:57.168Z,22.92
2018-02-18T23:18:24.670Z,21.85
2018-02-18T23:21:04.070Z,21.37
2018-02-18T23:23:31.540Z,21.45
2018-02-18T23:25:59.071Z,20.00
2018-02-18T23:28:29.398Z,22.02
2018-02-18T23:30:56.883Z,20.90
2018-02-18T23:33:25.171Z,22.37
2018-02-18T23:35:53.410Z,22.23
2018-02-18T23:38:20.909Z,21.92
2018-02-18T23:40:49.141Z,22.10
2018-02-18T23:43:16.647Z,23.33
2018-02-18T23:45:44.889Z,25.20
2018-02-18T23:48:12.396Z,22.90
2018-02-18T23:50:39.863Z,24.23
2018-02-18T23:53:07.354Z,23.95
2018-02-18T23:55:34.877Z,23.40
2018-02-18T23:58:02.335Z,22.00
